Rock Glen, Pennsylvania
Current Conditions -  °F | °C
As of 7:15 AM on Monday 26 Jan 2015 (Local Time) from KHZL Reporting Station
Overcast Overcast  
Wind Chill:   Ceiling: 1700
Heat Index: 19°   Visibility: 10mi
Dew Point: 14°   Wind: 12mph
Humidity: 80%   Direction: 110°ESE
Pressure: 29.84"   Gusts: 20mph
Location:  40.97°N, 76.18°W
Report Text: KHZL 261215Z AUTO 11010G17KT 10SM OVC017 M07/M10 A2984 RMK AO2
Loading
Personal Weather Stations






























Interactive Weather Map New forecast layout! Learn more

10-Day Weather Forecast

Advertisements
Track Severe Weather on mobile